Terminal Aerodrome Forecast
Issued by NWS

Home | Current Version | Previous Version | Text Only | Print | Product List | Glossary On
Versions: 1 2 3 4 5 6 7 8 9 10 11 12
000
FTUS45 KRIW 242300
TAFCPR
TAF
KCPR 242322Z 2500/2524 22024G34KT P6SM FEW120 BKN200
     FM250200 22017G25KT P6SM SCT080 BKN120
     FM251100 01009KT 5SM -SN OVC030
     FM251500 02010G20KT 3/4SM -SN OVC003=

USA.gov is the U.S. government's official web portal to all federal, state and local government web resources and services.